sensor_id;sensor_type;location;lat;lon;timestamp;temperature;humidity
17813;DHT22;9030;50.792;8.320;2023-06-05T00:01:52;9.50;99.90
17813;DHT22;9030;50.792;8.320;2023-06-05T00:04:19;9.60;99.90
17813;DHT22;9030;50.792;8.320;2023-06-05T00:06:46;9.70;99.90
17813;DHT22;9030;50.792;8.320;2023-06-05T00:09:13;9.60;99.90
17813;DHT22;9030;50.792;8.320;2023-06-05T00:11:40;9.60;99.90
17813;DHT22;9030;50.792;8.320;2023-06-05T00:14:07;9.60;99.90
17813;DHT22;9030;50.792;8.320;2023-06-05T00:16:34;9.50;99.90
17813;DHT22;9030;50.792;8.320;2023-06-05T00:19:02;9.40;99.90
17813;DHT22;9030;50.792;8.320;2023-06-05T00:21:29;9.30;99.90
17813;DHT22;9030;50.792;8.320;2023-06-05T00:23:55;9.20;99.90
17813;DHT22;9030;50.792;8.320;2023-06-05T00:26:22;9.20;99.90
17813;DHT22;9030;50.792;8.320;2023-06-05T00:28:49;9.20;99.90
17813;DHT22;9030;50.792;8.320;2023-06-05T00:31:15;9.20;99.90
17813;DHT22;9030;50.792;8.320;2023-06-05T00:33:44;9.40;99.90
17813;DHT22;9030;50.792;8.320;2023-06-05T00:36:12;9.30;99.90
17813;DHT22;9030;50.792;8.320;2023-06-05T00:38:38;9.30;99.90
17813;DHT22;9030;50.792;8.320;2023-06-05T00:41:05;9.30;99.90
17813;DHT22;9030;50.792;8.320;2023-06-05T00:43:32;9.20;99.90
17813;DHT22;9030;50.792;8.320;2023-06-05T00:46:01;9.10;99.90
17813;DHT22;9030;50.792;8.320;2023-06-05T00:48:29;8.90;99.90
17813;DHT22;9030;50.792;8.320;2023-06-05T00:50:56;8.80;99.90
17813;DHT22;9030;50.792;8.320;2023-06-05T00:53:25;8.70;99.90
17813;DHT22;9030;50.792;8.320;2023-06-05T00:55:52;8.70;99.90
17813;DHT22;9030;50.792;8.320;2023-06-05T00:58:19;8.70;99.90
17813;DHT22;9030;50.792;8.320;2023-06-05T01:00:47;8.70;99.90
17813;DHT22;9030;50.792;8.320;2023-06-05T01:03:14;8.70;99.90
17813;DHT22;9030;50.792;8.320;2023-06-05T01:05:42;8.70;99.90
17813;DHT22;9030;50.792;8.320;2023-06-05T01:08:09;8.70;99.90
17813;DHT22;9030;50.792;8.320;2023-06-05T01:10:39;8.70;99.90
17813;DHT22;9030;50.792;8.320;2023-06-05T01:13:13;8.70;99.90
17813;DHT22;9030;50.792;8.320;2023-06-05T01:15:41;8.70;99.90
17813;DHT22;9030;50.792;8.320;2023-06-05T01:18:09;8.70;99.90
17813;DHT22;9030;50.792;8.320;2023-06-05T01:23:06;8.60;99.90
17813;DHT22;9030;50.792;8.320;2023-06-05T01:25:33;8.60;99.90
17813;DHT22;9030;50.792;8.320;2023-06-05T01:28:05;8.50;99.90
17813;DHT22;9030;50.792;8.320;2023-06-05T01:30:36;8.40;99.90
17813;DHT22;9030;50.792;8.320;2023-06-05T01:33:09;8.40;99.90
17813;DHT22;9030;50.792;8.320;2023-06-05T01:35:38;8.40;99.90
17813;DHT22;9030;50.792;8.320;2023-06-05T01:38:08;8.50;99.90
17813;DHT22;9030;50.792;8.320;2023-06-05T01:40:37;8.50;99.90
17813;DHT22;9030;50.792;8.320;2023-06-05T01:43:06;8.40;99.90
17813;DHT22;9030;50.792;8.320;2023-06-05T01:45:36;8.30;99.90
17813;DHT22;9030;50.792;8.320;2023-06-05T01:48:07;8.20;99.90
17813;DHT22;9030;50.792;8.320;2023-06-05T01:50:36;8.10;99.90
17813;DHT22;9030;50.792;8.320;2023-06-05T01:53:03;8.00;99.90
17813;DHT22;9030;50.792;8.320;2023-06-05T01:55:32;7.90;99.90
17813;DHT22;9030;50.792;8.320;2023-06-05T01:58:04;7.90;99.90
17813;DHT22;9030;50.792;8.320;2023-06-05T02:00:30;7.90;99.90
17813;DHT22;9030;50.792;8.320;2023-06-05T02:02:57;7.90;99.90
17813;DHT22;9030;50.792;8.320;2023-06-05T02:05:24;8.00;99.90
17813;DHT22;9030;50.792;8.320;2023-06-05T02:07:55;8.00;99.90
17813;DHT22;9030;50.792;8.320;2023-06-05T02:10:24;8.00;99.90
17813;DHT22;9030;50.792;8.320;2023-06-05T02:12:52;8.00;99.90
17813;DHT22;9030;50.792;8.320;2023-06-05T02:15:19;8.00;99.90
17813;DHT22;9030;50.792;8.320;2023-06-05T02:17:45;7.80;99.90
17813;DHT22;9030;50.792;8.320;2023-06-05T02:20:16;7.70;99.90
17813;DHT22;9030;50.792;8.320;2023-06-05T02:22:43;7.70;99.90
17813;DHT22;9030;50.792;8.320;2023-06-05T02:25:10;7.60;99.90
17813;DHT22;9030;50.792;8.320;2023-06-05T02:27:37;7.90;99.90
17813;DHT22;9030;50.792;8.320;2023-06-05T02:30:07;7.80;99.90
17813;DHT22;9030;50.792;8.320;2023-06-05T02:32:34;7.80;99.90
17813;DHT22;9030;50.792;8.320;2023-06-05T02:35:01;7.80;99.90
17813;DHT22;9030;50.792;8.320;2023-06-05T02:37:31;7.80;99.90
17813;DHT22;9030;50.792;8.320;2023-06-05T02:40:03;7.80;99.90
17813;DHT22;9030;50.792;8.320;2023-06-05T02:42:30;7.70;99.90
17813;DHT22;9030;50.792;8.320;2023-06-05T02:44:57;7.60;99.90
17813;DHT22;9030;50.792;8.320;2023-06-05T02:47:25;7.60;99.90
17813;DHT22;9030;50.792;8.320;2023-06-05T02:49:51;7.60;99.90
17813;DHT22;9030;50.792;8.320;2023-06-05T02:52:18;7.50;99.90
17813;DHT22;9030;50.792;8.320;2023-06-05T02:54:45;7.50;99.90
17813;DHT22;9030;50.792;8.320;2023-06-05T02:57:12;7.50;99.90
17813;DHT22;9030;50.792;8.320;2023-06-05T02:59:41;7.40;99.90
17813;DHT22;9030;50.792;8.320;2023-06-05T03:02:07;7.30;99.90
17813;DHT22;9030;50.792;8.320;2023-06-05T03:04:35;7.30;99.90
17813;DHT22;9030;50.792;8.320;2023-06-05T03:07:06;7.40;99.90
17813;DHT22;9030;50.792;8.320;2023-06-05T03:09:35;7.50;99.90
17813;DHT22;9030;50.792;8.320;2023-06-05T03:12:02;7.50;99.90
17813;DHT22;9030;50.792;8.320;2023-06-05T03:14:30;7.50;99.90
17813;DHT22;9030;50.792;8.320;2023-06-05T03:16:57;7.50;99.90
17813;DHT22;9030;50.792;8.320;2023-06-05T03:19:24;7.50;99.90
17813;DHT22;9030;50.792;8.320;2023-06-05T03:21:52;7.60;99.90
17813;DHT22;9030;50.792;8.320;2023-06-05T03:24:19;7.70;99.90
17813;DHT22;9030;50.792;8.320;2023-06-05T03:26:45;7.70;99.90
17813;DHT22;9030;50.792;8.320;2023-06-05T03:29:12;7.80;99.90
17813;DHT22;9030;50.792;8.320;2023-06-05T03:31:40;7.90;99.90
17813;DHT22;9030;50.792;8.320;2023-06-05T03:34:08;7.80;99.90
17813;DHT22;9030;50.792;8.320;2023-06-05T03:36:34;7.80;99.90
17813;DHT22;9030;50.792;8.320;2023-06-05T03:39:04;7.80;99.90
17813;DHT22;9030;50.792;8.320;2023-06-05T03:41:31;7.80;99.90
17813;DHT22;9030;50.792;8.320;2023-06-05T03:43:58;7.80;99.90
17813;DHT22;9030;50.792;8.320;2023-06-05T03:46:24;7.80;99.90
17813;DHT22;9030;50.792;8.320;2023-06-05T03:48:55;7.90;99.90
17813;DHT22;9030;50.792;8.320;2023-06-05T03:51:23;7.80;99.90
17813;DHT22;9030;50.792;8.320;2023-06-05T03:53:55;7.90;99.90
17813;DHT22;9030;50.792;8.320;2023-06-05T03:56:25;7.90;99.90
17813;DHT22;9030;50.792;8.320;2023-06-05T03:58:54;7.90;99.90
17813;DHT22;9030;50.792;8.320;2023-06-05T04:01:21;8.00;99.90
17813;DHT22;9030;50.792;8.320;2023-06-05T04:03:47;8.10;99.90
17813;DHT22;9030;50.792;8.320;2023-06-05T04:06:14;8.10;99.90
17813;DHT22;9030;50.792;8.320;2023-06-05T04:08:41;8.20;99.90
17813;DHT22;9030;50.792;8.320;2023-06-05T04:11:07;8.20;99.90
17813;DHT22;9030;50.792;8.320;2023-06-05T04:13:36;8.30;99.90
17813;DHT22;9030;50.792;8.320;2023-06-05T04:16:02;8.50;99.90
17813;DHT22;9030;50.792;8.320;2023-06-05T04:18:29;8.50;99.90
17813;DHT22;9030;50.792;8.320;2023-06-05T04:20:56;8.70;99.90
17813;DHT22;9030;50.792;8.320;2023-06-05T04:23:22;9.00;99.90
17813;DHT22;9030;50.792;8.320;2023-06-05T04:25:49;9.10;99.90
17813;DHT22;9030;50.792;8.320;2023-06-05T04:28:19;9.30;99.90
17813;DHT22;9030;50.792;8.320;2023-06-05T04:30:47;9.30;99.90
17813;DHT22;9030;50.792;8.320;2023-06-05T04:33:14;9.50;99.90
17813;DHT22;9030;50.792;8.320;2023-06-05T04:35:41;9.50;99.90
17813;DHT22;9030;50.792;8.320;2023-06-05T04:38:08;9.70;99.90
17813;DHT22;9030;50.792;8.320;2023-06-05T04:40:35;10.00;99.90
17813;DHT22;9030;50.792;8.320;2023-06-05T04:43:02;10.30;99.90
17813;DHT22;9030;50.792;8.320;2023-06-05T04:45:28;10.50;99.90
17813;DHT22;9030;50.792;8.320;2023-06-05T04:47:56;10.70;99.90
17813;DHT22;9030;50.792;8.320;2023-06-05T04:50:25;10.80;99.90
17813;DHT22;9030;50.792;8.320;2023-06-05T04:52:52;10.90;99.90
17813;DHT22;9030;50.792;8.320;2023-06-05T04:55:19;11.00;99.90
17813;DHT22;9030;50.792;8.320;2023-06-05T04:57:46;11.10;99.90
17813;DHT22;9030;50.792;8.320;2023-06-05T05:00:14;11.30;99.90
17813;DHT22;9030;50.792;8.320;2023-06-05T05:02:41;11.40;99.90
17813;DHT22;9030;50.792;8.320;2023-06-05T05:05:09;11.70;99.90
17813;DHT22;9030;50.792;8.320;2023-06-05T05:07:39;11.80;99.90
17813;DHT22;9030;50.792;8.320;2023-06-05T05:10:07;12.10;99.90
17813;DHT22;9030;50.792;8.320;2023-06-05T05:12:34;12.10;99.90
17813;DHT22;9030;50.792;8.320;2023-06-05T05:15:02;12.20;99.90
17813;DHT22;9030;50.792;8.320;2023-06-05T05:17:29;12.20;99.90
17813;DHT22;9030;50.792;8.320;2023-06-05T05:19:56;12.50;99.90
17813;DHT22;9030;50.792;8.320;2023-06-05T05:22:24;12.90;99.90
17813;DHT22;9030;50.792;8.320;2023-06-05T05:24:51;13.30;99.90
17813;DHT22;9030;50.792;8.320;2023-06-05T05:27:18;13.60;99.90
17813;DHT22;9030;50.792;8.320;2023-06-05T05:29:45;13.90;99.90
17813;DHT22;9030;50.792;8.320;2023-06-05T05:32:12;14.30;99.90
17813;DHT22;9030;50.792;8.320;2023-06-05T05:34:38;14.50;99.90
17813;DHT22;9030;50.792;8.320;2023-06-05T05:37:05;14.80;99.90
17813;DHT22;9030;50.792;8.320;2023-06-05T05:39:33;15.10;99.90
17813;DHT22;9030;50.792;8.320;2023-06-05T05:42:00;15.40;99.90
17813;DHT22;9030;50.792;8.320;2023-06-05T05:44:27;15.40;99.90
17813;DHT22;9030;50.792;8.320;2023-06-05T05:46:54;15.70;99.90
17813;DHT22;9030;50.792;8.320;2023-06-05T05:49:21;15.50;99.90
17813;DHT22;9030;50.792;8.320;2023-06-05T05:51:48;15.20;99.90
17813;DHT22;9030;50.792;8.320;2023-06-05T05:54:15;15.20;99.90
17813;DHT22;9030;50.792;8.320;2023-06-05T05:56:43;15.30;99.90
17813;DHT22;9030;50.792;8.320;2023-06-05T05:59:09;15.60;99.90
17813;DHT22;9030;50.792;8.320;2023-06-05T06:01:36;15.70;99.90
17813;DHT22;9030;50.792;8.320;2023-06-05T06:04:03;16.00;99.90
17813;DHT22;9030;50.792;8.320;2023-06-05T06:06:30;16.20;99.90
17813;DHT22;9030;50.792;8.320;2023-06-05T06:08:58;16.30;99.90
17813;DHT22;9030;50.792;8.320;2023-06-05T06:11:25;16.40;99.90
17813;DHT22;9030;50.792;8.320;2023-06-05T06:13:53;16.50;99.90
17813;DHT22;9030;50.792;8.320;2023-06-05T06:16:20;16.80;99.90
17813;DHT22;9030;50.792;8.320;2023-06-05T06:18:46;17.00;99.90
17813;DHT22;9030;50.792;8.320;2023-06-05T06:21:13;17.10;99.90
17813;DHT22;9030;50.792;8.320;2023-06-05T06:23:40;17.00;99.90
17813;DHT22;9030;50.792;8.320;2023-06-05T06:26:06;17.30;99.90
17813;DHT22;9030;50.792;8.320;2023-06-05T06:28:33;17.30;99.90
17813;DHT22;9030;50.792;8.320;2023-06-05T06:31:01;17.20;99.90
17813;DHT22;9030;50.792;8.320;2023-06-05T06:33:28;17.30;99.90
17813;DHT22;9030;50.792;8.320;2023-06-05T06:35:55;17.50;99.90
17813;DHT22;9030;50.792;8.320;2023-06-05T06:38:23;17.60;99.90
17813;DHT22;9030;50.792;8.320;2023-06-05T06:40:52;17.40;99.90
17813;DHT22;9030;50.792;8.320;2023-06-05T06:43:19;17.60;99.90
17813;DHT22;9030;50.792;8.320;2023-06-05T06:45:46;17.80;99.90
17813;DHT22;9030;50.792;8.320;2023-06-05T06:48:14;17.80;99.90
17813;DHT22;9030;50.792;8.320;2023-06-05T06:50:42;17.90;99.90
17813;DHT22;9030;50.792;8.320;2023-06-05T06:53:09;18.00;99.90
17813;DHT22;9030;50.792;8.320;2023-06-05T06:55:35;18.40;99.90
17813;DHT22;9030;50.792;8.320;2023-06-05T06:58:03;18.50;99.90
17813;DHT22;9030;50.792;8.320;2023-06-05T07:00:30;18.50;99.90
17813;DHT22;9030;50.792;8.320;2023-06-05T07:02:57;18.20;99.90
17813;DHT22;9030;50.792;8.320;2023-06-05T07:05:25;18.40;99.90
17813;DHT22;9030;50.792;8.320;2023-06-05T07:07:52;18.30;99.90
17813;DHT22;9030;50.792;8.320;2023-06-05T07:10:18;18.70;99.90
17813;DHT22;9030;50.792;8.320;2023-06-05T07:12:45;18.70;99.90
17813;DHT22;9030;50.792;8.320;2023-06-05T07:15:12;18.90;99.90
17813;DHT22;9030;50.792;8.320;2023-06-05T07:17:38;18.90;99.90
17813;DHT22;9030;50.792;8.320;2023-06-05T07:20:06;18.80;99.90
17813;DHT22;9030;50.792;8.320;2023-06-05T07:22:35;19.10;99.90
17813;DHT22;9030;50.792;8.320;2023-06-05T07:25:02;19.60;99.90
17813;DHT22;9030;50.792;8.320;2023-06-05T07:27:30;19.80;99.90
17813;DHT22;9030;50.792;8.320;2023-06-05T07:29:56;19.60;99.90
17813;DHT22;9030;50.792;8.320;2023-06-05T07:32:24;19.20;99.90
17813;DHT22;9030;50.792;8.320;2023-06-05T07:34:51;19.50;99.90
17813;DHT22;9030;50.792;8.320;2023-06-05T07:37:17;20.00;99.90
17813;DHT22;9030;50.792;8.320;2023-06-05T07:39:45;20.50;99.90
17813;DHT22;9030;50.792;8.320;2023-06-05T07:42:15;20.40;99.90
17813;DHT22;9030;50.792;8.320;2023-06-05T07:44:42;20.90;99.90
17813;DHT22;9030;50.792;8.320;2023-06-05T07:47:09;20.80;99.90
17813;DHT22;9030;50.792;8.320;2023-06-05T07:49:35;20.80;99.90
17813;DHT22;9030;50.792;8.320;2023-06-05T07:52:02;20.80;99.90
17813;DHT22;9030;50.792;8.320;2023-06-05T07:54:29;20.80;99.90
17813;DHT22;9030;50.792;8.320;2023-06-05T07:56:57;20.80;99.90
17813;DHT22;9030;50.792;8.320;2023-06-05T07:59:24;20.80;99.90
17813;DHT22;9030;50.792;8.320;2023-06-05T08:01:53;20.80;99.90
17813;DHT22;9030;50.792;8.320;2023-06-05T08:04:20;21.10;99.90
17813;DHT22;9030;50.792;8.320;2023-06-05T08:06:50;21.20;99.90
17813;DHT22;9030;50.792;8.320;2023-06-05T08:09:17;21.40;99.90
17813;DHT22;9030;50.792;8.320;2023-06-05T08:11:43;21.40;99.90
17813;DHT22;9030;50.792;8.320;2023-06-05T08:14:12;21.40;99.90
17813;DHT22;9030;50.792;8.320;2023-06-05T08:16:38;21.90;99.90
17813;DHT22;9030;50.792;8.320;2023-06-05T08:19:05;22.10;99.90
17813;DHT22;9030;50.792;8.320;2023-06-05T08:21:33;22.20;99.90
17813;DHT22;9030;50.792;8.320;2023-06-05T08:23:59;22.50;99.40
17813;DHT22;9030;50.792;8.320;2023-06-05T08:26:26;22.40;99.80
17813;DHT22;9030;50.792;8.320;2023-06-05T08:28:53;22.00;97.90
17813;DHT22;9030;50.792;8.320;2023-06-05T08:31:21;21.50;99.90
17813;DHT22;9030;50.792;8.320;2023-06-05T08:33:49;21.70;99.30
17813;DHT22;9030;50.792;8.320;2023-06-05T08:36:15;22.00;99.70
17813;DHT22;9030;50.792;8.320;2023-06-05T08:38:44;22.60;99.60
17813;DHT22;9030;50.792;8.320;2023-06-05T08:41:13;22.60;96.90
17813;DHT22;9030;50.792;8.320;2023-06-05T08:43:42;22.60;97.70
17813;DHT22;9030;50.792;8.320;2023-06-05T08:46:10;22.50;98.20
17813;DHT22;9030;50.792;8.320;2023-06-05T08:48:42;22.70;97.90
17813;DHT22;9030;50.792;8.320;2023-06-05T08:51:10;23.30;96.90
17813;DHT22;9030;50.792;8.320;2023-06-05T08:53:38;23.40;95.20
17813;DHT22;9030;50.792;8.320;2023-06-05T08:56:06;23.20;96.00
17813;DHT22;9030;50.792;8.320;2023-06-05T08:58:33;23.20;94.40
17813;DHT22;9030;50.792;8.320;2023-06-05T09:01:00;22.30;96.30
17813;DHT22;9030;50.792;8.320;2023-06-05T09:03:27;22.50;94.80
17813;DHT22;9030;50.792;8.320;2023-06-05T09:05:55;23.00;96.70
17813;DHT22;9030;50.792;8.320;2023-06-05T09:08:28;23.30;94.50
17813;DHT22;9030;50.792;8.320;2023-06-05T09:11:23;23.30;95.20
17813;DHT22;9030;50.792;8.320;2023-06-05T09:13:50;23.80;94.10
17813;DHT22;9030;50.792;8.320;2023-06-05T09:16:19;23.40;94.70
17813;DHT22;9030;50.792;8.320;2023-06-05T09:18:51;23.60;94.00
17813;DHT22;9030;50.792;8.320;2023-06-05T09:21:20;23.70;93.20
17813;DHT22;9030;50.792;8.320;2023-06-05T09:23:47;23.80;92.60
17813;DHT22;9030;50.792;8.320;2023-06-05T09:26:14;23.90;93.80
17813;DHT22;9030;50.792;8.320;2023-06-05T09:28:53;24.20;93.60
17813;DHT22;9030;50.792;8.320;2023-06-05T09:31:20;24.30;92.00
17813;DHT22;9030;50.792;8.320;2023-06-05T09:33:55;24.00;93.60
17813;DHT22;9030;50.792;8.320;2023-06-05T09:36:23;23.80;90.50
17813;DHT22;9030;50.792;8.320;2023-06-05T09:38:51;23.90;90.60
17813;DHT22;9030;50.792;8.320;2023-06-05T09:41:18;24.10;88.00
17813;DHT22;9030;50.792;8.320;2023-06-05T09:43:44;24.10;88.70
17813;DHT22;9030;50.792;8.320;2023-06-05T09:46:12;24.00;87.90
17813;DHT22;9030;50.792;8.320;2023-06-05T09:48:39;24.10;88.30
17813;DHT22;9030;50.792;8.320;2023-06-05T09:51:11;24.10;88.20
17813;DHT22;9030;50.792;8.320;2023-06-05T09:53:42;24.50;90.90
17813;DHT22;9030;50.792;8.320;2023-06-05T09:56:11;24.90;89.70
17813;DHT22;9030;50.792;8.320;2023-06-05T09:58:39;25.10;84.60
17813;DHT22;9030;50.792;8.320;2023-06-05T10:01:07;25.30;86.30
17813;DHT22;9030;50.792;8.320;2023-06-05T10:03:36;25.20;88.00
17813;DHT22;9030;50.792;8.320;2023-06-05T10:06:04;24.90;83.80
17813;DHT22;9030;50.792;8.320;2023-06-05T10:08:31;25.40;84.60
17813;DHT22;9030;50.792;8.320;2023-06-05T10:11:00;25.90;82.00
17813;DHT22;9030;50.792;8.320;2023-06-05T10:13:28;25.80;82.10
17813;DHT22;9030;50.792;8.320;2023-06-05T10:15:55;26.00;83.50
17813;DHT22;9030;50.792;8.320;2023-06-05T10:18:22;25.40;79.80
17813;DHT22;9030;50.792;8.320;2023-06-05T10:20:49;25.40;79.00
17813;DHT22;9030;50.792;8.320;2023-06-05T10:23:17;25.90;78.80
17813;DHT22;9030;50.792;8.320;2023-06-05T10:25:47;25.90;79.90
17813;DHT22;9030;50.792;8.320;2023-06-05T10:28:27;26.00;81.30
17813;DHT22;9030;50.792;8.320;2023-06-05T10:31:20;25.80;83.20
17813;DHT22;9030;50.792;8.320;2023-06-05T10:34:13;25.80;76.40
17813;DHT22;9030;50.792;8.320;2023-06-05T10:37:15;26.30;76.10
17813;DHT22;9030;50.792;8.320;2023-06-05T10:39:48;26.10;76.40
17813;DHT22;9030;50.792;8.320;2023-06-05T10:42:23;26.20;78.10
17813;DHT22;9030;50.792;8.320;2023-06-05T10:44:51;26.10;78.60
17813;DHT22;9030;50.792;8.320;2023-06-05T10:47:52;25.00;79.10
17813;DHT22;9030;50.792;8.320;2023-06-05T10:50:23;25.10;80.20
17813;DHT22;9030;50.792;8.320;2023-06-05T10:52:54;25.10;79.10
17813;DHT22;9030;50.792;8.320;2023-06-05T10:55:23;25.20;80.40
17813;DHT22;9030;50.792;8.320;2023-06-05T10:58:11;24.90;75.80
17813;DHT22;9030;50.792;8.320;2023-06-05T11:01:15;25.80;83.80
17813;DHT22;9030;50.792;8.320;2023-06-05T11:03:57;26.00;75.90
17813;DHT22;9030;50.792;8.320;2023-06-05T11:06:27;25.60;78.60
17813;DHT22;9030;50.792;8.320;2023-06-05T11:09:10;25.30;78.90
17813;DHT22;9030;50.792;8.320;2023-06-05T11:11:57;25.10;75.90
17813;DHT22;9030;50.792;8.320;2023-06-05T11:14:24;25.60;79.70
17813;DHT22;9030;50.792;8.320;2023-06-05T11:16:52;25.90;75.30
17813;DHT22;9030;50.792;8.320;2023-06-05T11:19:35;26.20;75.90
17813;DHT22;9030;50.792;8.320;2023-06-05T11:22:09;26.60;73.00
17813;DHT22;9030;50.792;8.320;2023-06-05T11:24:37;26.40;73.00
17813;DHT22;9030;50.792;8.320;2023-06-05T11:27:05;26.10;77.90
17813;DHT22;9030;50.792;8.320;2023-06-05T11:29:35;26.20;72.30
17813;DHT22;9030;50.792;8.320;2023-06-05T11:32:10;26.50;74.60
17813;DHT22;9030;50.792;8.320;2023-06-05T11:34:38;26.40;76.70
17813;DHT22;9030;50.792;8.320;2023-06-05T11:37:17;26.20;72.60
17813;DHT22;9030;50.792;8.320;2023-06-05T11:39:44;25.90;73.90
17813;DHT22;9030;50.792;8.320;2023-06-05T11:42:11;26.40;76.10
17813;DHT22;9030;50.792;8.320;2023-06-05T11:44:37;26.50;68.10
17813;DHT22;9030;50.792;8.320;2023-06-05T11:47:05;26.00;69.90
17813;DHT22;9030;50.792;8.320;2023-06-05T11:49:33;26.70;73.30
17813;DHT22;9030;50.792;8.320;2023-06-05T11:52:00;27.20;73.30
17813;DHT22;9030;50.792;8.320;2023-06-05T11:54:28;27.30;71.30
17813;DHT22;9030;50.792;8.320;2023-06-05T11:56:57;27.20;70.60
17813;DHT22;9030;50.792;8.320;2023-06-05T11:59:24;26.20;69.90
17813;DHT22;9030;50.792;8.320;2023-06-05T12:01:50;26.50;71.70
17813;DHT22;9030;50.792;8.320;2023-06-05T12:04:19;26.90;67.50
17813;DHT22;9030;50.792;8.320;2023-06-05T12:06:48;27.20;69.20
17813;DHT22;9030;50.792;8.320;2023-06-05T12:09:17;26.40;66.40
17813;DHT22;9030;50.792;8.320;2023-06-05T12:11:44;26.90;69.80
17813;DHT22;9030;50.792;8.320;2023-06-05T12:14:12;27.30;68.10
17813;DHT22;9030;50.792;8.320;2023-06-05T12:16:40;27.70;69.00
17813;DHT22;9030;50.792;8.320;2023-06-05T12:19:12;27.80;68.90
17813;DHT22;9030;50.792;8.320;2023-06-05T12:21:39;27.50;64.00
17813;DHT22;9030;50.792;8.320;2023-06-05T12:24:07;27.70;70.50
17813;DHT22;9030;50.792;8.320;2023-06-05T12:26:53;27.10;66.30
17813;DHT22;9030;50.792;8.320;2023-06-05T12:29:21;27.40;66.20
17813;DHT22;9030;50.792;8.320;2023-06-05T12:31:48;27.40;66.90
17813;DHT22;9030;50.792;8.320;2023-06-05T12:34:15;27.20;66.00
17813;DHT22;9030;50.792;8.320;2023-06-05T12:36:43;27.60;68.30
17813;DHT22;9030;50.792;8.320;2023-06-05T12:39:12;28.00;63.40
17813;DHT22;9030;50.792;8.320;2023-06-05T12:41:39;28.40;67.30
17813;DHT22;9030;50.792;8.320;2023-06-05T12:44:06;28.20;68.00
17813;DHT22;9030;50.792;8.320;2023-06-05T12:46:33;28.40;65.80
17813;DHT22;9030;50.792;8.320;2023-06-05T12:49:01;27.40;63.10
17813;DHT22;9030;50.792;8.320;2023-06-05T12:51:28;28.10;64.50
17813;DHT22;9030;50.792;8.320;2023-06-05T12:53:56;28.20;63.80
17813;DHT22;9030;50.792;8.320;2023-06-05T12:56:24;28.20;61.20
17813;DHT22;9030;50.792;8.320;2023-06-05T12:58:53;28.20;60.20
17813;DHT22;9030;50.792;8.320;2023-06-05T13:01:20;28.40;63.40
17813;DHT22;9030;50.792;8.320;2023-06-05T13:03:47;28.10;63.60
17813;DHT22;9030;50.792;8.320;2023-06-05T13:06:14;27.50;67.10
17813;DHT22;9030;50.792;8.320;2023-06-05T13:08:40;27.60;65.10
17813;DHT22;9030;50.792;8.320;2023-06-05T13:11:07;27.40;63.60
17813;DHT22;9030;50.792;8.320;2023-06-05T13:13:35;26.70;61.10
17813;DHT22;9030;50.792;8.320;2023-06-05T13:16:03;26.90;63.20
17813;DHT22;9030;50.792;8.320;2023-06-05T13:18:31;27.20;60.90
17813;DHT22;9030;50.792;8.320;2023-06-05T13:20:58;27.70;64.10
17813;DHT22;9030;50.792;8.320;2023-06-05T13:23:25;27.40;65.20
17813;DHT22;9030;50.792;8.320;2023-06-05T13:25:52;27.30;65.40
17813;DHT22;9030;50.792;8.320;2023-06-05T13:28:19;27.60;68.80
17813;DHT22;9030;50.792;8.320;2023-06-05T13:30:47;27.40;64.80
17813;DHT22;9030;50.792;8.320;2023-06-05T13:33:14;27.40;62.70
17813;DHT22;9030;50.792;8.320;2023-06-05T13:35:40;27.50;61.30
17813;DHT22;9030;50.792;8.320;2023-06-05T13:38:07;26.90;64.70
17813;DHT22;9030;50.792;8.320;2023-06-05T13:40:34;27.10;64.40
17813;DHT22;9030;50.792;8.320;2023-06-05T13:43:00;27.40;66.00
17813;DHT22;9030;50.792;8.320;2023-06-05T13:45:27;27.50;65.30
17813;DHT22;9030;50.792;8.320;2023-06-05T13:47:55;28.00;62.80
17813;DHT22;9030;50.792;8.320;2023-06-05T13:50:22;28.10;66.60
17813;DHT22;9030;50.792;8.320;2023-06-05T13:52:48;28.10;65.10
17813;DHT22;9030;50.792;8.320;2023-06-05T13:55:15;27.70;66.40
17813;DHT22;9030;50.792;8.320;2023-06-05T13:57:42;27.90;64.40
17813;DHT22;9030;50.792;8.320;2023-06-05T14:00:09;27.20;62.90
17813;DHT22;9030;50.792;8.320;2023-06-05T14:02:37;27.80;65.80
17813;DHT22;9030;50.792;8.320;2023-06-05T14:05:05;27.90;64.20
17813;DHT22;9030;50.792;8.320;2023-06-05T14:07:33;28.00;62.90
17813;DHT22;9030;50.792;8.320;2023-06-05T14:10:00;27.90;64.00
17813;DHT22;9030;50.792;8.320;2023-06-05T14:12:26;27.70;63.90
17813;DHT22;9030;50.792;8.320;2023-06-05T14:14:53;27.70;66.90
17813;DHT22;9030;50.792;8.320;2023-06-05T14:17:19;27.90;67.30
17813;DHT22;9030;50.792;8.320;2023-06-05T14:19:46;27.50;66.80
17813;DHT22;9030;50.792;8.320;2023-06-05T14:22:14;27.40;66.90
17813;DHT22;9030;50.792;8.320;2023-06-05T14:24:41;26.90;68.80
17813;DHT22;9030;50.792;8.320;2023-06-05T14:27:08;26.70;66.70
17813;DHT22;9030;50.792;8.320;2023-06-05T14:29:37;26.90;67.80
17813;DHT22;9030;50.792;8.320;2023-06-05T14:32:05;26.90;66.00
17813;DHT22;9030;50.792;8.320;2023-06-05T14:34:33;26.60;68.50
17813;DHT22;9030;50.792;8.320;2023-06-05T14:36:59;27.00;67.10
17813;DHT22;9030;50.792;8.320;2023-06-05T14:39:27;27.10;65.80
17813;DHT22;9030;50.792;8.320;2023-06-05T14:41:54;26.90;67.30
17813;DHT22;9030;50.792;8.320;2023-06-05T14:44:21;26.70;66.20
17813;DHT22;9030;50.792;8.320;2023-06-05T14:46:47;26.70;64.90
17813;DHT22;9030;50.792;8.320;2023-06-05T14:49:14;26.70;64.90
17813;DHT22;9030;50.792;8.320;2023-06-05T14:51:44;27.10;64.00
17813;DHT22;9030;50.792;8.320;2023-06-05T14:54:12;26.60;65.20
17813;DHT22;9030;50.792;8.320;2023-06-05T14:56:41;26.90;65.20
17813;DHT22;9030;50.792;8.320;2023-06-05T14:59:08;27.10;63.80
17813;DHT22;9030;50.792;8.320;2023-06-05T15:01:35;27.20;63.10
17813;DHT22;9030;50.792;8.320;2023-06-05T15:04:02;27.40;64.60
17813;DHT22;9030;50.792;8.320;2023-06-05T15:06:28;27.20;63.00
17813;DHT22;9030;50.792;8.320;2023-06-05T15:08:55;27.20;64.40
17813;DHT22;9030;50.792;8.320;2023-06-05T15:11:22;27.40;63.40
17813;DHT22;9030;50.792;8.320;2023-06-05T15:13:50;26.90;62.00
17813;DHT22;9030;50.792;8.320;2023-06-05T15:16:16;27.30;63.20
17813;DHT22;9030;50.792;8.320;2023-06-05T15:18:43;26.80;63.00
17813;DHT22;9030;50.792;8.320;2023-06-05T15:21:10;26.90;62.50
17813;DHT22;9030;50.792;8.320;2023-06-05T15:23:36;26.80;65.40
17813;DHT22;9030;50.792;8.320;2023-06-05T15:26:03;26.90;61.90
17813;DHT22;9030;50.792;8.320;2023-06-05T15:28:30;26.40;60.60
17813;DHT22;9030;50.792;8.320;2023-06-05T15:30:58;26.60;60.20
17813;DHT22;9030;50.792;8.320;2023-06-05T15:33:24;25.90;62.70
17813;DHT22;9030;50.792;8.320;2023-06-05T15:35:51;25.90;65.00
17813;DHT22;9030;50.792;8.320;2023-06-05T15:38:18;25.90;61.50
17813;DHT22;9030;50.792;8.320;2023-06-05T15:40:44;26.10;63.20
17813;DHT22;9030;50.792;8.320;2023-06-05T15:43:11;25.80;63.30
17813;DHT22;9030;50.792;8.320;2023-06-05T15:45:38;25.90;62.20
17813;DHT22;9030;50.792;8.320;2023-06-05T15:48:06;25.60;61.30
17813;DHT22;9030;50.792;8.320;2023-06-05T15:50:33;25.80;65.10
17813;DHT22;9030;50.792;8.320;2023-06-05T15:53:00;25.80;61.10
17813;DHT22;9030;50.792;8.320;2023-06-05T15:55:27;26.10;61.80
17813;DHT22;9030;50.792;8.320;2023-06-05T15:57:54;25.60;61.20
17813;DHT22;9030;50.792;8.320;2023-06-05T16:00:21;26.10;64.10